Time;durP1;ratioP1;P1;durP2;ratioP2;P2;SDS_P1;SDS_P2;PMS_P1;PMS_P2;Temp;Humidity;BMP_temperature;BMP_pressure;BME280_temperature;BME280_humidity;BME280_pressure;Samples;Min_cycle;Max_cycle;Signal;HPM_P1;HPM_P2
2021/05/02 00:01:33;;;;;;;8.68;7.78;;;7.20;99.90;;;;;;5039426;28;20261;-76
2021/05/02 00:03:58;;;;;;;10.10;8.40;;;7.30;99.90;;;;;;5039552;28;20264;-77
2021/05/02 00:06:24;;;;;;;11.50;8.47;;;7.30;99.90;;;;;;5038923;28;20263;-76
2021/05/02 00:08:50;;;;;;;11.63;9.30;;;7.00;99.90;;;;;;5039168;28;20185;-76
2021/05/02 00:11:15;;;;;;;11.23;9.00;;;7.00;99.90;;;;;;5039512;28;20516;-76
2021/05/02 00:13:41;;;;;;;11.10;9.33;;;6.90;99.90;;;;;;5038007;28;20236;-77
2021/05/02 00:16:08;;;;;;;13.93;10.15;;;7.00;99.90;;;;;;5038775;28;20209;-76
2021/05/02 00:18:35;;;;;;;11.90;10.05;;;6.90;99.90;;;;;;5039177;28;20547;-76
2021/05/02 00:21:04;;;;;;;10.38;9.27;;;6.90;99.90;;;;;;5039302;28;20174;-77
2021/05/02 00:23:35;;;;;;;13.43;9.90;;;6.90;99.90;;;;;;5036643;28;20170;-77
2021/05/02 00:26:01;;;;;;;13.25;10.30;;;6.90;99.90;;;;;;5035872;28;20269;-76
2021/05/02 00:28:28;;;;;;;16.73;11.73;;;6.70;99.90;;;;;;5036035;28;20282;-77
2021/05/02 00:30:55;;;;;;;12.93;10.30;;;6.50;99.90;;;;;;5035773;28;20895;-77
2021/05/02 00:33:23;;;;;;;13.43;11.10;;;6.50;99.90;;;;;;5036015;28;20617;-76
2021/05/02 00:35:50;;;;;;;11.95;10.10;;;6.50;99.90;;;;;;5035606;28;20256;-76
2021/05/02 00:38:16;;;;;;;12.60;10.48;;;6.50;99.90;;;;;;5035802;28;20181;-77
2021/05/02 00:40:43;;;;;;;14.10;10.77;;;6.50;99.90;;;;;;5035739;28;20273;-77
2021/05/02 00:43:12;;;;;;;15.75;10.10;;;6.40;99.90;;;;;;5034482;28;20194;-76
2021/05/02 00:45:58;;;;;;;13.93;10.80;;;6.10;99.90;;;;;;5035369;28;20265;-76
2021/05/02 00:48:32;;;;;;;17.13;11.05;;;5.90;99.90;;;;;;5035620;28;20172;-77
2021/05/02 00:51:02;;;;;;;13.80;10.52;;;5.90;99.90;;;;;;5035571;28;20203;-76
2021/05/02 00:53:50;;;;;;;20.23;11.57;;;5.90;99.90;;;;;;5035614;28;20649;-77
2021/05/02 00:56:22;;;;;;;11.65;10.45;;;5.80;99.90;;;;;;5033875;28;20589;-78
2021/05/02 00:59:04;;;;;;;14.00;10.07;;;5.60;99.90;;;;;;5035521;28;20505;-78
2021/05/02 01:01:36;;;;;;;11.80;10.15;;;5.60;99.90;;;;;;5035602;28;20198;-77
2021/05/02 01:04:03;;;;;;;18.35;10.93;;;5.60;99.90;;;;;;5035533;28;20181;-77
2021/05/02 01:06:30;;;;;;;14.75;11.38;;;5.50;99.90;;;;;;5035005;28;20232;-77
2021/05/02 01:08:59;;;;;;;14.48;11.85;;;5.30;99.90;;;;;;5035228;28;20174;-77
2021/05/02 01:11:26;;;;;;;13.82;11.45;;;5.40;99.90;;;;;;5035308;28;20228;-77
2021/05/02 01:13:57;;;;;;;15.60;11.95;;;5.30;99.90;;;;;;5035171;28;20172;-77
2021/05/02 01:16:26;;;;;;;15.65;11.10;;;5.20;99.90;;;;;;5034770;28;20195;-77
2021/05/02 01:18:55;;;;;;;19.30;13.48;;;5.30;99.90;;;;;;5035067;28;20300;-77
2021/05/02 01:21:30;;;;;;;15.35;11.63;;;5.30;99.90;;;;;;5034977;28;20165;-77
2021/05/02 01:23:58;;;;;;;12.93;10.82;;;5.20;99.90;;;;;;5035331;28;20169;-77
2021/05/02 01:26:25;;;;;;;14.73;11.85;;;5.10;99.90;;;;;;5034616;28;20190;-76
2021/05/02 01:28:54;;;;;;;13.98;11.32;;;5.10;99.90;;;;;;5035027;28;20189;-77
2021/05/02 01:31:20;;;;;;;15.98;11.38;;;5.10;99.90;;;;;;5033608;28;20174;-77
2021/05/02 01:33:47;;;;;;;13.68;11.40;;;5.00;99.90;;;;;;5034897;28;20193;-76
2021/05/02 01:36:13;;;;;;;15.77;12.65;;;5.00;99.90;;;;;;5033447;28;20193;-77
2021/05/02 01:38:39;;;;;;;13.43;11.27;;;5.00;99.90;;;;;;5033711;28;20626;-76
2021/05/02 01:41:05;;;;;;;17.30;12.50;;;4.90;99.90;;;;;;5034558;28;20174;-77
2021/05/02 01:43:31;;;;;;;18.88;12.30;;;4.90;99.90;;;;;;5034642;28;20578;-76
2021/05/02 01:45:57;;;;;;;15.20;12.10;;;4.90;99.90;;;;;;5034196;28;20209;-76
2021/05/02 01:48:23;;;;;;;15.70;12.60;;;4.80;99.90;;;;;;5033341;28;20170;-76
2021/05/02 01:50:57;;;;;;;15.38;12.77;;;4.90;99.90;;;;;;5034320;28;20289;-77
2021/05/02 01:53:23;;;;;;;15.43;12.18;;;5.00;99.90;;;;;;5034346;28;20240;-77
2021/05/02 01:55:52;;;;;;;17.45;13.70;;;5.20;99.90;;;;;;5032658;28;20288;-76
2021/05/02 01:58:19;;;;;;;18.90;13.30;;;5.20;99.90;;;;;;5034360;28;20166;-78
2021/05/02 02:00:49;;;;;;;18.50;13.73;;;5.20;99.90;;;;;;5034266;28;20677;-77
2021/05/02 02:03:16;;;;;;;19.58;15.05;;;5.20;99.90;;;;;;5032964;28;20184;-77
2021/05/02 02:05:42;;;;;;;20.30;15.23;;;5.30;99.90;;;;;;5033777;28;20189;-77
2021/05/02 02:08:08;;;;;;;19.63;14.45;;;5.40;99.90;;;;;;5034252;28;20181;-77
2021/05/02 02:10:35;;;;;;;19.13;14.55;;;5.50;99.90;;;;;;5034039;28;20627;-76
2021/05/02 02:13:02;;;;;;;23.48;15.25;;;5.30;99.90;;;;;;5034254;28;20257;-76
2021/05/02 02:15:29;;;;;;;21.08;15.88;;;5.10;99.90;;;;;;5033633;28;20623;-77
2021/05/02 02:17:55;;;;;;;21.30;15.60;;;5.20;99.90;;;;;;5034168;28;20170;-76
2021/05/02 02:20:23;;;;;;;22.83;16.67;;;5.10;99.90;;;;;;5034072;28;20173;-76
2021/05/02 02:22:51;;;;;;;20.60;16.67;;;5.10;99.90;;;;;;5034109;28;20416;-77
2021/05/02 02:25:17;;;;;;;21.95;14.93;;;5.20;99.90;;;;;;5033489;28;20177;-76
2021/05/02 02:27:46;;;;;;;21.80;15.80;;;5.20;99.90;;;;;;5033543;28;20197;-78
2021/05/02 02:30:12;;;;;;;20.65;15.77;;;5.30;99.90;;;;;;5033771;28;20198;-77
2021/05/02 02:32:47;;;;;;;19.77;15.85;;;5.40;99.90;;;;;;5032478;28;20264;-77
2021/05/02 02:35:20;;;;;;;21.83;16.38;;;5.40;99.90;;;;;;5032098;28;20182;-77
2021/05/02 02:37:49;;;;;;;21.83;16.08;;;5.60;99.90;;;;;;5032220;28;20194;-78
2021/05/02 02:40:16;;;;;;;24.52;17.02;;;5.50;99.90;;;;;;5016158;28;20182;-77
2021/05/02 02:42:46;;;;;;;18.75;15.25;;;5.60;99.90;;;;;;5033753;28;20185;-77
2021/05/02 02:45:13;;;;;;;19.92;15.18;;;5.60;99.90;;;;;;5033261;28;20176;-77
2021/05/02 02:47:44;;;;;;;21.77;16.80;;;5.60;99.90;;;;;;5033031;28;20202;-77
2021/05/02 02:50:13;;;;;;;20.65;16.98;;;5.80;99.90;;;;;;5033510;28;20530;-77
2021/05/02 02:52:44;;;;;;;22.70;16.25;;;5.70;99.90;;;;;;5033448;28;20166;-77
2021/05/02 02:55:12;;;;;;;19.77;16.25;;;5.70;99.90;;;;;;5033314;28;20607;-77
2021/05/02 02:57:49;;;;;;;21.40;15.80;;;5.80;99.90;;;;;;5033287;28;20213;-78
2021/05/02 03:00:19;;;;;;;24.15;18.00;;;5.80;99.90;;;;;;5033365;28;20212;-77
2021/05/02 03:03:17;;;;;;;22.13;15.93;;;5.90;99.90;;;;;;5033378;28;20172;-77
2021/05/02 03:05:45;;;;;;;19.38;16.20;;;5.80;99.90;;;;;;5032720;28;20277;-77
2021/05/02 03:08:12;;;;;;;20.48;15.45;;;5.80;99.90;;;;;;5033333;28;20552;-78
2021/05/02 03:10:40;;;;;;;22.35;17.02;;;5.60;99.90;;;;;;5033358;28;20235;-77
2021/05/02 03:13:07;;;;;;;21.63;16.67;;;5.60;99.90;;;;;;5033244;28;20166;-77
2021/05/02 03:15:33;;;;;;;23.35;17.88;;;5.70;99.90;;;;;;5032825;28;20176;-77
2021/05/02 03:18:19;;;;;;;25.67;17.00;;;5.70;99.90;;;;;;5031917;28;20542;-77
2021/05/02 03:20:48;;;;;;;23.00;17.20;;;5.80;99.90;;;;;;5031985;28;20273;-77
2021/05/02 03:23:41;;;;;;;29.83;17.27;;;5.80;99.90;;;;;;5033117;28;20273;-77
2021/05/02 03:26:09;;;;;;;24.70;18.75;;;5.70;99.90;;;;;;5030272;28;20210;-77
2021/05/02 03:28:46;;;;;;;25.23;18.00;;;5.80;99.90;;;;;;5033129;28;20173;-77
2021/05/02 03:31:13;;;;;;;24.30;16.75;;;5.90;99.90;;;;;;5032018;28;20189;-77
2021/05/02 03:33:47;;;;;;;24.77;17.80;;;5.90;99.90;;;;;;5033156;28;20189;-77
2021/05/02 03:36:45;;;;;;;20.05;16.48;;;5.70;99.90;;;;;;5031333;28;20551;-78
2021/05/02 03:39:11;;;;;;;24.88;18.25;;;5.70;99.90;;;;;;5032982;28;20158;-77
2021/05/02 03:41:37;;;;;;;26.77;19.05;;;5.90;99.90;;;;;;5033020;28;20205;-77
2021/05/02 03:44:04;;;;;;;26.17;19.00;;;5.80;99.90;;;;;;5032898;28;20203;-77
2021/05/02 03:46:30;;;;;;;28.35;19.25;;;5.70;99.90;;;;;;5032376;28;20292;-77
2021/05/02 03:49:04;;;;;;;24.88;19.45;;;5.80;99.90;;;;;;5032771;28;20156;-78
2021/05/02 03:51:32;;;;;;;21.98;18.05;;;5.70;99.90;;;;;;5032840;28;20529;-77
2021/05/02 03:53:58;;;;;;;24.83;18.42;;;5.60;99.90;;;;;;5033098;28;20502;-77
2021/05/02 03:56:41;;;;;;;27.27;19.63;;;5.60;99.90;;;;;;5032223;28;20292;-77
2021/05/02 03:59:11;;;;;;;28.02;20.38;;;5.70;99.90;;;;;;5035083;28;20467;-77
2021/05/02 04:01:51;;;;;;;32.20;20.05;;;5.80;99.90;;;;;;5036476;28;20178;-77
2021/05/02 04:04:18;;;;;;;28.90;21.30;;;5.90;99.90;;;;;;5035214;28;20174;-78
2021/05/02 04:06:44;;;;;;;26.80;20.33;;;5.90;99.90;;;;;;5036149;28;20210;-77
2021/05/02 04:09:12;;;;;;;25.63;19.27;;;5.90;99.90;;;;;;5036351;28;20198;-77
2021/05/02 04:11:38;;;;;;;27.38;19.60;;;5.90;99.90;;;;;;5036234;28;20405;-77
2021/05/02 04:14:05;;;;;;;25.80;19.17;;;5.80;99.90;;;;;;5034960;28;20514;-78
2021/05/02 04:16:32;;;;;;;29.42;20.17;;;5.90;99.90;;;;;;5035806;28;20182;-78
2021/05/02 04:18:59;;;;;;;30.80;19.23;;;5.90;99.90;;;;;;5036533;28;20174;-77
2021/05/02 04:21:25;;;;;;;29.45;20.55;;;5.90;99.90;;;;;;5036228;28;20237;-77
2021/05/02 04:23:51;;;;;;;28.23;19.83;;;5.80;99.90;;;;;;5036018;28;20181;-77
2021/05/02 04:26:17;;;;;;;31.00;20.40;;;5.90;99.90;;;;;;5035859;28;20633;-77
2021/05/02 04:28:43;;;;;;;27.65;20.83;;;5.90;99.90;;;;;;5034699;28;20170;-77
2021/05/02 04:31:09;;;;;;;28.27;19.67;;;6.00;99.90;;;;;;5036133;28;20564;-77
2021/05/02 04:33:34;;;;;;;26.97;19.93;;;5.90;99.90;;;;;;5034702;28;20680;-77
2021/05/02 04:36:00;;;;;;;29.70;20.63;;;6.00;99.90;;;;;;5034504;28;20518;-77
2021/05/02 04:38:25;;;;;;;29.40;20.30;;;5.80;99.90;;;;;;5034502;28;20300;-77
2021/05/02 04:40:51;;;;;;;30.10;21.07;;;6.00;99.90;;;;;;5035785;28;20627;-77
2021/05/02 04:43:17;;;;;;;27.23;18.43;;;6.10;99.90;;;;;;5035779;28;20181;-77
2021/05/02 04:45:42;;;;;;;28.90;19.80;;;6.10;99.90;;;;;;5035340;28;20203;-77
2021/05/02 04:48:08;;;;;;;26.47;19.40;;;6.10;99.90;;;;;;5035684;28;20173;-77
2021/05/02 04:50:37;;;;;;;38.03;19.50;;;6.10;99.90;;;;;;5035463;28;20245;-78
2021/05/02 04:53:03;;;;;;;23.65;18.85;;;6.00;99.90;;;;;;5035499;28;20162;-77
2021/05/02 04:55:29;;;;;;;26.80;18.07;;;6.00;99.90;;;;;;5034078;28;20168;-77
2021/05/02 04:57:58;;;;;;;22.65;17.48;;;6.10;99.90;;;;;;5035393;28;20440;-77
2021/05/02 05:00:24;;;;;;;27.98;18.67;;;6.10;99.90;;;;;;5035418;28;20177;-77
2021/05/02 05:02:51;;;;;;;26.23;18.45;;;6.20;99.90;;;;;;5035479;28;20733;-77
2021/05/02 05:05:16;;;;;;;23.88;17.35;;;6.10;99.90;;;;;;5033854;28;20264;-77
2021/05/02 05:07:42;;;;;;;26.57;17.20;;;6.10;99.90;;;;;;5034046;28;20277;-77
2021/05/02 05:10:08;;;;;;;23.27;17.67;;;6.10;99.90;;;;;;5035089;28;20206;-77
2021/05/02 05:12:37;;;;;;;23.80;15.82;;;6.20;99.90;;;;;;5035316;28;20257;-77
2021/05/02 05:15:04;;;;;;;23.48;17.52;;;6.20;99.90;;;;;;5035156;28;20162;-77
2021/05/02 05:17:29;;;;;;;21.15;15.02;;;6.20;99.90;;;;;;5035111;28;20217;-77
2021/05/02 05:19:55;;;;;;;23.20;16.03;;;6.10;99.90;;;;;;5035177;28;20205;-77
2021/05/02 05:22:21;;;;;;;24.10;18.40;;;6.00;99.90;;;;;;5035155;28;20178;-78
2021/05/02 05:24:47;;;;;;;22.50;15.00;;;6.10;99.90;;;;;;5034688;28;20167;-77
2021/05/02 05:27:12;;;;;;;23.37;15.50;;;5.90;99.90;;;;;;5035184;28;20205;-78
2021/05/02 05:29:38;;;;;;;19.73;14.27;;;5.90;99.90;;;;;;5034820;28;20210;-77
2021/05/02 05:32:04;;;;;;;20.20;16.23;;;6.00;99.90;;;;;;5033684;28;20178;-78
2021/05/02 05:34:31;;;;;;;21.02;15.93;;;6.00;99.90;;;;;;5034579;28;20255;-78
2021/05/02 05:36:57;;;;;;;19.52;14.13;;;5.90;99.90;;;;;;5034745;28;20192;-77
2021/05/02 05:39:23;;;;;;;18.83;12.88;;;5.90;99.90;;;;;;5017095;28;20406;-77
2021/05/02 05:41:49;;;;;;;27.73;16.67;;;5.80;99.90;;;;;;5034699;28;20193;-77
2021/05/02 05:44:15;;;;;;;21.83;14.13;;;5.80;99.90;;;;;;5034671;28;20449;-77
2021/05/02 05:46:40;;;;;;;19.87;14.47;;;5.70;99.90;;;;;;5027068;28;20210;-77
2021/05/02 05:49:06;;;;;;;20.33;14.23;;;5.80;99.90;;;;;;5022620;28;20185;-78
2021/05/02 05:51:32;;;;;;;27.17;14.38;;;5.80;99.90;;;;;;5013444;28;20172;-77
2021/05/02 05:53:58;;;;;;;20.40;14.13;;;6.00;99.90;;;;;;5013348;28;20179;-78
2021/05/02 05:56:23;;;;;;;17.77;13.27;;;6.10;99.90;;;;;;5014141;28;20256;-78
2021/05/02 05:58:49;;;;;;;16.60;12.00;;;6.10;99.90;;;;;;5014821;28;20175;-78
2021/05/02 06:01:15;;;;;;;14.00;11.40;;;6.10;99.90;;;;;;5017709;28;20181;-78
2021/05/02 06:03:40;;;;;;;15.30;11.57;;;6.10;99.90;;;;;;5033236;28;20253;-78
2021/05/02 06:06:06;;;;;;;14.53;10.23;;;6.00;99.90;;;;;;5032857;28;20209;-78
2021/05/02 06:08:31;;;;;;;15.97;11.33;;;6.10;99.90;;;;;;5033012;28;20170;-78
2021/05/02 06:10:57;;;;;;;16.80;10.90;;;6.20;99.90;;;;;;5016491;28;20567;-78
2021/05/02 06:13:23;;;;;;;18.00;10.40;;;6.40;99.90;;;;;;5033827;28;20170;-78
2021/05/02 06:15:48;;;;;;;14.37;10.20;;;6.30;99.90;;;;;;5032595;28;20197;-78
2021/05/02 06:18:14;;;;;;;16.60;9.60;;;6.40;99.90;;;;;;5034090;28;20181;-79
2021/05/02 06:20:42;;;;;;;10.93;8.18;;;6.50;99.90;;;;;;5015883;28;20179;-77
2021/05/02 06:23:07;;;;;;;12.80;9.15;;;6.30;99.90;;;;;;5013124;28;20221;-78
2021/05/02 06:25:33;;;;;;;10.10;8.57;;;6.40;99.90;;;;;;5013629;28;20214;-76
2021/05/02 06:28:00;;;;;;;16.73;8.93;;;6.60;99.90;;;;;;5014369;28;20248;-77
2021/05/02 06:30:26;;;;;;;12.88;8.52;;;6.70;99.90;;;;;;5014064;28;20213;-77
2021/05/02 06:32:52;;;;;;;11.77;7.78;;;6.90;99.90;;;;;;5014076;28;20526;-77
2021/05/02 06:35:18;;;;;;;14.73;9.20;;;6.90;99.90;;;;;;5013628;28;20178;-78
2021/05/02 06:37:44;;;;;;;12.65;7.95;;;7.10;99.90;;;;;;5013911;28;20194;-76
2021/05/02 06:40:10;;;;;;;13.87;7.30;;;7.10;99.90;;;;;;5013892;28;20278;-77
2021/05/02 06:42:36;;;;;;;11.60;6.93;;;7.10;99.90;;;;;;5013954;28;20182;-77
2021/05/02 06:45:02;;;;;;;9.00;6.57;;;6.90;99.90;;;;;;5013681;28;20174;-77
2021/05/02 06:47:28;;;;;;;11.07;7.30;;;7.10;99.90;;;;;;5013650;28;20265;-77
2021/05/02 06:49:53;;;;;;;11.77;5.63;;;7.30;99.90;;;;;;5013614;28;20298;-77
2021/05/02 06:52:19;;;;;;;11.60;6.13;;;7.30;99.90;;;;;;5012509;28;20202;-76
2021/05/02 06:54:45;;;;;;;9.97;6.03;;;7.30;99.90;;;;;;5013569;28;20185;-76
2021/05/02 06:57:12;;;;;;;9.65;5.70;;;7.20;99.90;;;;;;5013584;28;20210;-77
2021/05/02 06:59:37;;;;;;;12.35;5.95;;;7.20;99.90;;;;;;5013597;28;20657;-76
2021/05/02 07:02:03;;;;;;;8.90;5.37;;;7.50;99.90;;;;;;5013542;28;20187;-76
2021/05/02 07:04:34;;;;;;;8.93;6.67;;;7.70;99.90;;;;;;4996103;28;20670;-76
2021/05/02 07:07:03;;;;;;;9.48;5.60;;;7.60;99.90;;;;;;5012329;28;20555;-79
2021/05/02 07:09:29;;;;;;;8.57;5.50;;;7.70;99.90;;;;;;5013827;28;20198;-79
2021/05/02 07:11:54;;;;;;;14.50;5.07;;;7.80;99.90;;;;;;5012213;28;20631;-79
2021/05/02 07:14:20;;;;;;;6.80;4.73;;;7.60;99.90;;;;;;4995806;28;20806;-79
2021/05/02 07:16:46;;;;;;;8.17;5.10;;;7.90;99.90;;;;;;5012062;28;20520;-77
2021/05/02 07:19:12;;;;;;;8.63;5.23;;;7.90;99.90;;;;;;5015993;28;20186;-77
2021/05/02 07:21:38;;;;;;;9.68;4.43;;;8.00;99.90;;;;;;5020875;28;20183;-77
2021/05/02 07:24:05;;;;;;;7.17;3.90;;;8.10;99.90;;;;;;5024486;28;20178;-77
2021/05/02 07:26:30;;;;;;;11.68;4.95;;;8.30;99.90;;;;;;5032657;28;20434;-77
2021/05/02 07:28:56;;;;;;;7.43;4.47;;;8.50;99.90;;;;;;5033013;28;20245;-77
2021/05/02 07:31:22;;;;;;;8.60;4.20;;;8.40;99.90;;;;;;5032875;28;20712;-78
2021/05/02 07:33:47;;;;;;;13.63;4.10;;;8.50;99.90;;;;;;5035207;28;20562;-78
2021/05/02 07:36:14;;;;;;;7.73;3.87;;;8.70;99.90;;;;;;5035240;28;20197;-78
2021/05/02 07:38:42;;;;;;;6.28;3.97;;;8.70;99.90;;;;;;5036066;28;20175;-78
2021/05/02 07:41:09;;;;;;;11.60;5.35;;;8.50;99.90;;;;;;5029699;28;20213;-79
2021/05/02 07:43:34;;;;;;;6.50;3.80;;;8.60;99.90;;;;;;5016648;28;20179;-80
2021/05/02 07:46:01;;;;;;;7.37;3.70;;;8.50;99.90;;;;;;5016175;28;20325;-79
2021/05/02 07:48:27;;;;;;;7.68;4.03;;;8.50;99.90;;;;;;5016893;28;20639;-79
2021/05/02 07:50:53;;;;;;;5.87;3.77;;;8.60;99.90;;;;;;5016943;28;20253;-79
2021/05/02 07:53:19;;;;;;;7.43;4.40;;;8.60;99.90;;;;;;5016710;28;20412;-79
2021/05/02 07:55:45;;;;;;;132.48;119.53;;;8.90;99.90;;;;;;5016353;28;20198;-79
2021/05/02 07:58:10;;;;;;;100.70;90.40;;;8.90;99.90;;;;;;5015484;28;20178;-79
2021/05/02 08:00:36;;;;;;;12.20;7.23;;;8.90;99.90;;;;;;5016490;28;20414;-80
2021/05/02 08:03:02;;;;;;;132.07;117.70;;;9.10;99.90;;;;;;5016755;28;20433;-79
2021/05/02 08:05:29;;;;;;;5.30;3.57;;;9.00;99.90;;;;;;5016435;28;20175;-79
2021/05/02 08:07:55;;;;;;;8.52;3.60;;;8.70;99.90;;;;;;5015781;28;20570;-79
2021/05/02 08:10:21;;;;;;;5.00;3.13;;;8.50;99.90;;;;;;5015177;28;20293;-78
2021/05/02 08:12:47;;;;;;;6.77;3.37;;;8.30;99.90;;;;;;5016522;28;20272;-79
2021/05/02 08:15:13;;;;;;;5.07;2.90;;;8.70;99.90;;;;;;5015082;28;20201;-79
2021/05/02 08:17:39;;;;;;;8.90;2.70;;;9.20;99.90;;;;;;5016490;28;20194;-79
2021/05/02 08:20:08;;;;;;;5.30;2.70;;;9.60;99.90;;;;;;5016435;28;20464;-79
2021/05/02 08:22:34;;;;;;;6.05;2.00;;;9.40;99.90;;;;;;5016403;28;20662;-80
2021/05/02 08:25:00;;;;;;;3.93;2.07;;;8.90;99.90;;;;;;5016221;28;20186;-79
2021/05/02 08:27:26;;;;;;;3.63;2.30;;;8.50;99.90;;;;;;5016254;28;20520;-80
2021/05/02 08:29:51;;;;;;;3.87;2.53;;;9.10;99.90;;;;;;5016713;28;20249;-80
2021/05/02 08:32:17;;;;;;;5.13;2.00;;;9.50;99.90;;;;;;5016293;28;20175;-81
2021/05/02 08:34:42;;;;;;;4.07;1.63;;;9.70;99.90;;;;;;5015914;28;20183;-79
2021/05/02 08:37:08;;;;;;;7.13;1.97;;;9.70;99.90;;;;;;5016470;28;20229;-79
2021/05/02 08:39:34;;;;;;;5.13;2.33;;;9.40;99.90;;;;;;5016135;28;20266;-79
2021/05/02 08:42:00;;;;;;;6.32;2.08;;;8.90;99.90;;;;;;5016029;28;20184;-79
2021/05/02 08:44:29;;;;;;;4.85;2.40;;;9.20;99.90;;;;;;5015230;28;20281;-80
2021/05/02 08:46:55;;;;;;;7.68;2.28;;;9.30;99.90;;;;;;5015900;28;20197;-79
2021/05/02 08:49:20;;;;;;;4.47;2.43;;;9.40;99.90;;;;;;5015719;28;20206;-79
2021/05/02 08:51:49;;;;;;;6.63;1.90;;;10.00;99.90;;;;;;5016083;28;20254;-79
2021/05/02 08:54:14;;;;;;;6.50;3.00;;;10.60;99.90;;;;;;5014644;28;20651;-80
2021/05/02 08:56:40;;;;;;;4.03;3.00;;;11.20;99.90;;;;;;5015276;28;20465;-79
2021/05/02 08:59:07;;;;;;;6.50;2.60;;;10.90;99.90;;;;;;5015784;28;20650;-79
2021/05/02 09:01:34;;;;;;;4.50;3.00;;;10.20;99.90;;;;;;5015722;28;20414;-79
2021/05/02 09:04:04;;;;;;;4.50;3.20;;;10.00;99.90;;;;;;5015460;28;20441;-78
2021/05/02 09:06:32;;;;;;;7.13;3.30;;;10.00;99.90;;;;;;5013851;28;20476;-78
2021/05/02 09:09:06;;;;;;;6.70;3.10;;;9.80;99.90;;;;;;5015349;28;20417;-78
2021/05/02 09:11:37;;;;;;;4.55;3.45;;;9.80;99.90;;;;;;5014455;28;20420;-77
2021/05/02 09:14:10;;;;;;;5.03;2.95;;;9.40;99.90;;;;;;5014164;28;20203;-78
2021/05/02 09:16:47;;;;;;;5.30;3.63;;;9.60;99.90;;;;;;5013880;28;20213;-79
2021/05/02 09:19:13;;;;;;;5.30;3.07;;;10.00;99.90;;;;;;5014336;28;20781;-79
2021/05/02 09:21:39;;;;;;;5.97;2.70;;;10.50;99.90;;;;;;5014371;28;20410;-79
2021/05/02 09:24:19;;;;;;;5.23;2.10;;;10.90;99.90;;;;;;5015254;28;20436;-79
2021/05/02 09:26:45;;;;;;;7.97;3.80;;;11.10;99.90;;;;;;5014822;28;20503;-79
2021/05/02 09:29:11;;;;;;;4.53;2.33;;;11.70;99.90;;;;;;5015153;28;20468;-82
2021/05/02 09:31:41;;;;;;;3.00;2.47;;;11.90;99.90;;;;;;5015173;28;20568;-78
2021/05/02 09:34:18;;;;;;;6.43;2.40;;;11.30;99.90;;;;;;5013987;28;20219;-79
2021/05/02 09:37:00;;;;;;;5.30;2.30;;;10.90;99.90;;;;;;5023598;28;20430;-80
2021/05/02 09:39:47;;;;;;;2.63;2.00;;;10.80;99.90;;;;;;5034386;28;20416;-80
2021/05/02 09:42:18;;;;;;;5.50;2.77;;;10.00;99.90;;;;;;5033521;28;21158;-79
2021/05/02 09:44:53;;;;;;;7.07;2.70;;;10.20;99.90;;;;;;5031783;28;20409;-79
2021/05/02 09:47:36;;;;;;;8.25;2.60;;;10.20;99.90;;;;;;5017445;28;20407;-78
2021/05/02 09:50:22;;;;;;;5.93;2.77;;;10.30;99.90;;;;;;5020077;28;20309;-78
2021/05/02 09:52:56;;;;;;;3.20;2.23;;;10.30;99.90;;;;;;5023802;28;20416;-81
2021/05/02 09:55:25;;;;;;;9.13;2.50;;;10.70;99.90;;;;;;5031603;28;20500;-82
2021/05/02 09:58:15;;;;;;;9.83;3.27;;;10.70;99.90;;;;;;5033835;28;20425;-81
2021/05/02 10:00:50;;;;;;;2.50;1.90;;;10.80;99.90;;;;;;5033197;28;20417;-81
2021/05/02 10:03:29;;;;;;;3.73;2.10;;;10.40;99.90;;;;;;5034343;28;20404;-81
2021/05/02 10:06:11;;;;;;;5.47;2.30;;;10.30;99.90;;;;;;5032984;28;20951;-80
2021/05/02 10:08:38;;;;;;;5.93;2.53;;;10.70;99.90;;;;;;5034483;28;20371;-80
2021/05/02 10:11:09;;;;;;;3.90;2.10;;;10.40;99.90;;;;;;5033038;28;20456;-80
2021/05/02 10:13:37;;;;;;;3.83;1.90;;;10.70;99.90;;;;;;5033440;28;20814;-80
2021/05/02 10:16:05;;;;;;;4.10;2.23;;;10.70;99.90;;;;;;5033955;28;20503;-81
2021/05/02 10:18:31;;;;;;;2.40;1.80;;;10.60;99.90;;;;;;5033178;28;20412;-81
2021/05/02 10:20:58;;;;;;;5.10;1.90;;;10.60;99.90;;;;;;5016465;28;20937;-80
2021/05/02 10:23:36;;;;;;;2.33;2.13;;;10.50;99.90;;;;;;5016584;28;20428;-81
2021/05/02 10:26:06;;;;;;;2.80;2.10;;;10.90;99.90;;;;;;5017766;28;21022;-80
2021/05/02 10:28:35;;;;;;;2.43;2.23;;;11.10;99.90;;;;;;5015775;28;20504;-81
2021/05/02 10:31:08;;;;;;;3.53;1.80;;;11.00;99.90;;;;;;5032596;28;20518;-80
2021/05/02 10:33:45;;;;;;;2.40;1.87;;;11.20;99.90;;;;;;5016547;28;20421;-81
2021/05/02 10:41:36;;;;;;;3.93;1.90;;;11.20;99.90;;;;;;5273275;22;20483;-81
2021/05/02 10:44:11;;;;;;;3.40;1.73;;;11.20;99.90;;;;;;5052265;28;20822;-81
2021/05/02 10:46:57;;;;;;;4.50;2.00;;;11.10;99.90;;;;;;5053191;28;20394;-81
2021/05/02 10:49:23;;;;;;;6.00;2.17;;;11.30;99.90;;;;;;5052331;28;20542;-81
2021/05/02 10:51:54;;;;;;;2.70;1.73;;;11.10;99.90;;;;;;5052537;28;20851;-80
2021/05/02 10:54:47;;;;;;;5.93;2.03;;;10.80;99.90;;;;;;5053512;28;20253;-81
2021/05/02 10:57:32;;;;;;;3.20;2.37;;;10.70;99.90;;;;;;5053358;28;20296;-81
2021/05/02 11:00:07;;;;;;;4.30;2.13;;;10.60;99.90;;;;;;5053381;28;20410;-81
2021/05/02 11:02:49;;;;;;;2.95;1.70;;;10.80;99.90;;;;;;5052136;28;20177;-81
2021/05/02 11:05:18;;;;;;;6.30;2.07;;;11.00;99.90;;;;;;5052340;28;20193;-82
2021/05/02 11:07:47;;;;;;;2.50;1.80;;;11.10;99.90;;;;;;5035273;28;20443;-81
2021/05/02 11:10:15;;;;;;;2.70;2.30;;;11.10;99.90;;;;;;5052266;28;20459;-81
2021/05/02 11:12:42;;;;;;;4.53;2.87;;;10.90;99.90;;;;;;5053113;28;20412;-81
2021/05/02 11:15:26;;;;;;;2.80;2.20;;;10.80;99.90;;;;;;5051100;28;20439;-82
2021/05/02 11:17:55;;;;;;;3.93;1.97;;;10.90;99.90;;;;;;5051846;28;20736;-81
2021/05/02 11:20:42;;;;;;;5.73;2.47;;;10.80;99.90;;;;;;5053674;28;20430;-81
2021/05/02 11:23:08;;;;;;;3.43;1.80;;;10.80;99.90;;;;;;5053395;28;20404;-82
2021/05/02 11:25:47;;;;;;;2.93;2.30;;;10.50;99.90;;;;;;5051818;28;20439;-80
2021/05/02 11:28:33;;;;;;;2.67;1.90;;;10.60;99.90;;;;;;5053198;28;20161;-80
2021/05/02 11:30:59;;;;;;;4.40;2.60;;;10.90;99.90;;;;;;5053064;28;20497;-80
2021/05/02 11:33:26;;;;;;;3.53;1.90;;;10.80;99.90;;;;;;5051779;28;20822;-81
2021/05/02 11:35:53;;;;;;;5.50;2.08;;;11.00;99.90;;;;;;5051398;28;20272;-81
2021/05/02 11:38:36;;;;;;;3.20;2.10;;;11.00;99.90;;;;;;5051670;28;20165;-81
2021/05/02 11:41:08;;;;;;;3.10;2.10;;;11.40;99.90;;;;;;5053100;28;20950;-81
2021/05/02 11:43:41;;;;;;;3.77;2.30;;;11.40;99.90;;;;;;5053170;28;20498;-81
2021/05/02 11:46:19;;;;;;;4.80;1.87;;;11.20;99.90;;;;;;5051303;28;20447;-81
2021/05/02 11:48:47;;;;;;;2.63;1.33;;;11.00;99.90;;;;;;5051801;28;20948;-81
2021/05/02 11:51:19;;;;;;;3.30;2.30;;;11.10;99.90;;;;;;5035035;28;20468;-81
2021/05/02 11:53:59;;;;;;;3.67;2.40;;;11.10;99.90;;;;;;5052850;28;20440;-81
2021/05/02 11:57:16;;;;;;;4.67;2.27;;;11.30;99.90;;;;;;5066766;22;20495;-80
2021/05/02 12:00:10;;;;;;;3.10;1.93;;;11.10;99.90;;;;;;5052597;28;20412;-80
2021/05/02 12:02:43;;;;;;;2.40;2.20;;;10.80;99.90;;;;;;5051549;28;20419;-81
2021/05/02 12:05:12;;;;;;;5.33;1.80;;;10.70;99.90;;;;;;5052483;28;20392;-81
2021/05/02 12:07:39;;;;;;;3.00;2.50;;;10.80;99.90;;;;;;5052475;28;20601;-81
2021/05/02 12:10:31;;;;;;;;;;;;;;;;;;;;;
2021/05/02 12:13:43;;;;;;;3.60;1.93;;;11.00;99.90;;;;;;5052548;28;20411;-80
2021/05/02 12:16:14;;;;;;;3.20;1.90;;;11.20;99.90;;;;;;4994558;28;20532;-80
2021/05/02 12:19:03;;;;;;;5.60;2.07;;;11.40;99.90;;;;;;5051488;28;20420;-81
2021/05/02 12:28:02;;;;;;;3.73;1.90;;;11.70;99.90;;;;;;5256136;22;20482;-81
2021/05/02 12:30:42;;;;;;;2.60;1.97;;;11.50;99.90;;;;;;5054632;28;20459;-81
2021/05/02 12:33:08;;;;;;;3.33;1.53;;;11.90;99.90;;;;;;5054530;28;20419;-81
2021/05/02 12:35:34;;;;;;;3.93;1.67;;;12.00;99.90;;;;;;5037672;28;20431;-81
2021/05/02 12:38:01;;;;;;;5.40;1.50;;;11.80;99.90;;;;;;5054567;28;20227;-81
2021/05/02 12:40:34;;;;;;;3.00;1.70;;;11.80;99.90;;;;;;5054292;28;20178;-81
2021/05/02 12:43:41;;;;;;;1.80;1.60;;;12.10;99.90;;;;;;5038122;28;20858;-80
2021/05/02 12:46:37;;;;;;;4.60;1.90;;;12.20;99.90;;;;;;5056682;28;20425;-80
2021/05/02 12:49:11;;;;;;;2.90;1.50;;;11.50;99.90;;;;;;5054716;28;20398;-80
2021/05/02 12:52:12;;;;;;;2.73;1.97;;;11.50;99.90;;;;;;5051464;28;20431;-80
2021/05/02 13:15:11;;;;;;;2.30;1.80;;;11.20;99.90;;;;;;4978167;28;20798;-81
2021/05/02 13:18:17;;;;;;;6.03;1.90;;;11.10;99.90;;;;;;4996306;28;20199;-80
2021/05/02 13:24:24;;;;;;;3.87;2.03;;;10.80;99.90;;;;;;5015544;28;20406;-81
2021/05/02 13:42:17;;;;;;;4.10;2.40;;;11.50;99.90;;;;;;3143510;22;20487;-82
2021/05/02 13:44:45;;;;;;;5.00;2.30;;;11.30;99.90;;;;;;5055107;28;20419;-81
2021/05/02 13:47:48;;;;;;;3.73;2.10;;;11.30;99.90;;;;;;5171850;22;20582;-80
2021/05/02 13:57:01;;;;;;;6.90;2.53;;;11.40;99.90;;;;;;5021917;28;20442;-80
2021/05/02 14:03:09;;;;;;;3.90;2.20;;;11.40;99.90;;;;;;5030978;28;20455;-81